sensor_id;sensor_type;location;lat;lon;timestamp;P1;durP1;ratioP1;P2;durP2;ratioP2
14732;SDS011;7457;50.960;6.830;2023-06-22T00:00:54;7.75;;;4.20;;
14732;SDS011;7457;50.960;6.830;2023-06-22T00:03:21;6.97;;;4.78;;
14732;SDS011;7457;50.960;6.830;2023-06-22T00:05:48;5.63;;;4.65;;
14732;SDS011;7457;50.960;6.830;2023-06-22T00:08:14;5.97;;;4.20;;
14732;SDS011;7457;50.960;6.830;2023-06-22T00:10:40;4.68;;;4.18;;
14732;SDS011;7457;50.960;6.830;2023-06-22T00:13:06;6.47;;;4.80;;
14732;SDS011;7457;50.960;6.830;2023-06-22T00:15:32;5.75;;;4.07;;
14732;SDS011;7457;50.960;6.830;2023-06-22T00:17:58;5.70;;;4.55;;
14732;SDS011;7457;50.960;6.830;2023-06-22T00:20:24;7.15;;;4.57;;
14732;SDS011;7457;50.960;6.830;2023-06-22T00:22:54;6.28;;;4.32;;
14732;SDS011;7457;50.960;6.830;2023-06-22T00:25:20;10.05;;;4.25;;
14732;SDS011;7457;50.960;6.830;2023-06-22T00:27:46;5.38;;;4.63;;
14732;SDS011;7457;50.960;6.830;2023-06-22T00:30:12;6.05;;;4.00;;
14732;SDS011;7457;50.960;6.830;2023-06-22T00:32:38;6.15;;;4.25;;
14732;SDS011;7457;50.960;6.830;2023-06-22T00:35:05;5.15;;;4.70;;
14732;SDS011;7457;50.960;6.830;2023-06-22T00:37:30;6.85;;;4.63;;
14732;SDS011;7457;50.960;6.830;2023-06-22T00:39:56;6.63;;;4.40;;
14732;SDS011;7457;50.960;6.830;2023-06-22T00:42:22;7.50;;;4.57;;
14732;SDS011;7457;50.960;6.830;2023-06-22T00:44:48;6.25;;;4.35;;
14732;SDS011;7457;50.960;6.830;2023-06-22T00:47:13;4.90;;;4.38;;
14732;SDS011;7457;50.960;6.830;2023-06-22T00:49:42;5.97;;;4.35;;
14732;SDS011;7457;50.960;6.830;2023-06-22T00:52:08;5.00;;;4.35;;
14732;SDS011;7457;50.960;6.830;2023-06-22T00:54:38;6.07;;;4.20;;
14732;SDS011;7457;50.960;6.830;2023-06-22T00:57:13;5.85;;;4.60;;
14732;SDS011;7457;50.960;6.830;2023-06-22T00:59:41;6.28;;;4.30;;
14732;SDS011;7457;50.960;6.830;2023-06-22T01:02:08;6.13;;;4.72;;
14732;SDS011;7457;50.960;6.830;2023-06-22T01:04:34;4.97;;;4.35;;
14732;SDS011;7457;50.960;6.830;2023-06-22T01:07:12;5.28;;;3.97;;
14732;SDS011;7457;50.960;6.830;2023-06-22T01:10:05;5.13;;;4.40;;
14732;SDS011;7457;50.960;6.830;2023-06-22T01:12:48;6.93;;;4.30;;
14732;SDS011;7457;50.960;6.830;2023-06-22T01:15:25;5.30;;;4.15;;
14732;SDS011;7457;50.960;6.830;2023-06-22T01:17:54;7.90;;;4.28;;
14732;SDS011;7457;50.960;6.830;2023-06-22T01:20:22;7.55;;;4.82;;
14732;SDS011;7457;50.960;6.830;2023-06-22T01:25:42;6.70;;;4.10;;
14732;SDS011;7457;50.960;6.830;2023-06-22T01:30:58;7.13;;;4.43;;
14732;SDS011;7457;50.960;6.830;2023-06-22T01:33:31;6.13;;;4.13;;
14732;SDS011;7457;50.960;6.830;2023-06-22T01:36:00;5.80;;;4.72;;
14732;SDS011;7457;50.960;6.830;2023-06-22T01:38:27;5.07;;;4.53;;
14732;SDS011;7457;50.960;6.830;2023-06-22T01:40:54;5.85;;;4.07;;
14732;SDS011;7457;50.960;6.830;2023-06-22T01:43:22;7.65;;;4.50;;
14732;SDS011;7457;50.960;6.830;2023-06-22T01:45:51;6.45;;;4.03;;
14732;SDS011;7457;50.960;6.830;2023-06-22T01:48:18;5.75;;;3.88;;
14732;SDS011;7457;50.960;6.830;2023-06-22T01:50:44;7.80;;;4.95;;
14732;SDS011;7457;50.960;6.830;2023-06-22T01:53:10;7.75;;;4.57;;
14732;SDS011;7457;50.960;6.830;2023-06-22T01:55:36;4.68;;;4.18;;
14732;SDS011;7457;50.960;6.830;2023-06-22T01:58:01;5.47;;;4.18;;
14732;SDS011;7457;50.960;6.830;2023-06-22T02:00:28;5.53;;;4.38;;
14732;SDS011;7457;50.960;6.830;2023-06-22T02:03:03;6.95;;;4.38;;
14732;SDS011;7457;50.960;6.830;2023-06-22T02:05:37;4.80;;;3.97;;
14732;SDS011;7457;50.960;6.830;2023-06-22T02:08:11;7.43;;;4.03;;
14732;SDS011;7457;50.960;6.830;2023-06-22T02:10:44;5.18;;;4.18;;
14732;SDS011;7457;50.960;6.830;2023-06-22T02:13:11;5.25;;;4.28;;
14732;SDS011;7457;50.960;6.830;2023-06-22T02:15:39;4.70;;;4.18;;
14732;SDS011;7457;50.960;6.830;2023-06-22T02:18:05;6.07;;;4.40;;
14732;SDS011;7457;50.960;6.830;2023-06-22T02:20:30;7.10;;;4.60;;
14732;SDS011;7457;50.960;6.830;2023-06-22T02:22:56;5.53;;;4.50;;
14732;SDS011;7457;50.960;6.830;2023-06-22T02:25:22;5.22;;;4.28;;
14732;SDS011;7457;50.960;6.830;2023-06-22T02:27:47;6.38;;;4.03;;
14732;SDS011;7457;50.960;6.830;2023-06-22T02:30:14;5.55;;;4.38;;
14732;SDS011;7457;50.960;6.830;2023-06-22T02:32:40;5.68;;;4.57;;
14732;SDS011;7457;50.960;6.830;2023-06-22T02:35:07;5.32;;;4.38;;
14732;SDS011;7457;50.960;6.830;2023-06-22T02:37:35;4.70;;;4.25;;
14732;SDS011;7457;50.960;6.830;2023-06-22T02:40:06;5.50;;;4.32;;
14732;SDS011;7457;50.960;6.830;2023-06-22T02:42:33;7.20;;;4.57;;
14732;SDS011;7457;50.960;6.830;2023-06-22T02:44:59;9.10;;;4.50;;
14732;SDS011;7457;50.960;6.830;2023-06-22T02:47:26;4.55;;;4.00;;
14732;SDS011;7457;50.960;6.830;2023-06-22T02:49:51;6.20;;;4.78;;
14732;SDS011;7457;50.960;6.830;2023-06-22T02:52:17;7.53;;;4.93;;
14732;SDS011;7457;50.960;6.830;2023-06-22T02:54:43;10.52;;;4.40;;
14732;SDS011;7457;50.960;6.830;2023-06-22T02:57:11;5.57;;;4.35;;
14732;SDS011;7457;50.960;6.830;2023-06-22T02:59:39;6.75;;;4.68;;
14732;SDS011;7457;50.960;6.830;2023-06-22T03:02:06;5.88;;;4.25;;
14732;SDS011;7457;50.960;6.830;2023-06-22T03:04:33;5.70;;;4.50;;
14732;SDS011;7457;50.960;6.830;2023-06-22T03:06:59;5.13;;;4.45;;
14732;SDS011;7457;50.960;6.830;2023-06-22T03:09:26;5.15;;;4.35;;
14732;SDS011;7457;50.960;6.830;2023-06-22T03:11:52;8.25;;;4.60;;
14732;SDS011;7457;50.960;6.830;2023-06-22T03:14:19;7.82;;;4.32;;
14732;SDS011;7457;50.960;6.830;2023-06-22T03:16:44;8.05;;;4.30;;
14732;SDS011;7457;50.960;6.830;2023-06-22T03:19:10;5.13;;;3.83;;
14732;SDS011;7457;50.960;6.830;2023-06-22T03:21:36;5.25;;;4.45;;
14732;SDS011;7457;50.960;6.830;2023-06-22T03:24:06;5.60;;;4.47;;
14732;SDS011;7457;50.960;6.830;2023-06-22T03:26:32;7.82;;;4.68;;
14732;SDS011;7457;50.960;6.830;2023-06-22T03:28:58;5.65;;;4.43;;
14732;SDS011;7457;50.960;6.830;2023-06-22T03:31:24;6.18;;;4.38;;
14732;SDS011;7457;50.960;6.830;2023-06-22T03:33:50;5.45;;;4.30;;
14732;SDS011;7457;50.960;6.830;2023-06-22T03:36:15;5.15;;;4.20;;
14732;SDS011;7457;50.960;6.830;2023-06-22T03:38:46;7.25;;;4.47;;
14732;SDS011;7457;50.960;6.830;2023-06-22T03:41:12;5.90;;;4.40;;
14732;SDS011;7457;50.960;6.830;2023-06-22T03:43:38;9.30;;;4.78;;
14732;SDS011;7457;50.960;6.830;2023-06-22T03:46:03;5.85;;;4.30;;
14732;SDS011;7457;50.960;6.830;2023-06-22T03:48:29;6.57;;;4.75;;
14732;SDS011;7457;50.960;6.830;2023-06-22T03:50:55;6.05;;;4.75;;
14732;SDS011;7457;50.960;6.830;2023-06-22T03:53:20;5.53;;;4.60;;
14732;SDS011;7457;50.960;6.830;2023-06-22T03:55:49;5.10;;;4.60;;
14732;SDS011;7457;50.960;6.830;2023-06-22T03:58:16;6.75;;;4.38;;
14732;SDS011;7457;50.960;6.830;2023-06-22T04:00:44;5.32;;;4.63;;
14732;SDS011;7457;50.960;6.830;2023-06-22T04:03:11;5.40;;;4.90;;
14732;SDS011;7457;50.960;6.830;2023-06-22T04:05:38;5.00;;;4.50;;
14732;SDS011;7457;50.960;6.830;2023-06-22T04:08:04;5.35;;;4.63;;
14732;SDS011;7457;50.960;6.830;2023-06-22T04:10:30;4.88;;;4.38;;
14732;SDS011;7457;50.960;6.830;2023-06-22T04:12:56;7.53;;;4.47;;
14732;SDS011;7457;50.960;6.830;2023-06-22T04:15:22;4.70;;;4.25;;
14732;SDS011;7457;50.960;6.830;2023-06-22T04:17:47;7.63;;;4.97;;
14732;SDS011;7457;50.960;6.830;2023-06-22T04:20:13;4.97;;;4.47;;
14732;SDS011;7457;50.960;6.830;2023-06-22T04:22:39;6.07;;;4.72;;
14732;SDS011;7457;50.960;6.830;2023-06-22T04:25:05;5.53;;;4.95;;
14732;SDS011;7457;50.960;6.830;2023-06-22T04:27:32;8.55;;;5.05;;
14732;SDS011;7457;50.960;6.830;2023-06-22T04:30:02;7.25;;;5.10;;
14732;SDS011;7457;50.960;6.830;2023-06-22T04:32:32;7.38;;;4.57;;
14732;SDS011;7457;50.960;6.830;2023-06-22T04:34:58;8.93;;;4.68;;
14732;SDS011;7457;50.960;6.830;2023-06-22T04:37:25;8.95;;;4.80;;
14732;SDS011;7457;50.960;6.830;2023-06-22T04:39:51;5.57;;;5.05;;
14732;SDS011;7457;50.960;6.830;2023-06-22T04:42:17;5.55;;;4.68;;
14732;SDS011;7457;50.960;6.830;2023-06-22T04:44:42;8.02;;;5.63;;
14732;SDS011;7457;50.960;6.830;2023-06-22T04:47:08;7.72;;;5.63;;
14732;SDS011;7457;50.960;6.830;2023-06-22T04:49:34;7.50;;;5.50;;
14732;SDS011;7457;50.960;6.830;2023-06-22T04:52:09;8.30;;;5.35;;
14732;SDS011;7457;50.960;6.830;2023-06-22T04:54:36;7.20;;;5.00;;
14732;SDS011;7457;50.960;6.830;2023-06-22T04:57:04;8.57;;;5.22;;
14732;SDS011;7457;50.960;6.830;2023-06-22T04:59:36;7.88;;;6.07;;
14732;SDS011;7457;50.960;6.830;2023-06-22T05:02:04;8.45;;;5.90;;
14732;SDS011;7457;50.960;6.830;2023-06-22T05:04:30;9.43;;;5.72;;
14732;SDS011;7457;50.960;6.830;2023-06-22T05:06:57;10.60;;;5.70;;
14732;SDS011;7457;50.960;6.830;2023-06-22T05:09:23;6.78;;;5.78;;
14732;SDS011;7457;50.960;6.830;2023-06-22T05:11:52;8.95;;;5.65;;
14732;SDS011;7457;50.960;6.830;2023-06-22T05:14:18;7.03;;;5.47;;
14732;SDS011;7457;50.960;6.830;2023-06-22T05:16:44;6.38;;;5.07;;
14732;SDS011;7457;50.960;6.830;2023-06-22T05:19:10;8.05;;;4.85;;
14732;SDS011;7457;50.960;6.830;2023-06-22T05:21:36;7.00;;;5.70;;
14732;SDS011;7457;50.960;6.830;2023-06-22T05:24:02;5.35;;;4.72;;
14732;SDS011;7457;50.960;6.830;2023-06-22T05:26:29;5.90;;;5.15;;
14732;SDS011;7457;50.960;6.830;2023-06-22T05:28:56;6.00;;;5.38;;
14732;SDS011;7457;50.960;6.830;2023-06-22T05:31:22;8.85;;;5.25;;
14732;SDS011;7457;50.960;6.830;2023-06-22T05:33:49;6.88;;;5.22;;
14732;SDS011;7457;50.960;6.830;2023-06-22T05:36:16;8.38;;;5.53;;
14732;SDS011;7457;50.960;6.830;2023-06-22T05:38:43;8.23;;;5.45;;
14732;SDS011;7457;50.960;6.830;2023-06-22T05:41:09;7.70;;;5.20;;
14732;SDS011;7457;50.960;6.830;2023-06-22T05:43:35;11.07;;;5.90;;
14732;SDS011;7457;50.960;6.830;2023-06-22T05:46:01;9.10;;;5.80;;
14732;SDS011;7457;50.960;6.830;2023-06-22T05:48:27;11.43;;;5.40;;
14732;SDS011;7457;50.960;6.830;2023-06-22T05:50:53;7.90;;;5.15;;
14732;SDS011;7457;50.960;6.830;2023-06-22T05:53:19;7.05;;;5.03;;
14732;SDS011;7457;50.960;6.830;2023-06-22T05:55:45;9.30;;;4.97;;
14732;SDS011;7457;50.960;6.830;2023-06-22T05:58:11;7.47;;;5.07;;
14732;SDS011;7457;50.960;6.830;2023-06-22T06:00:38;8.30;;;5.57;;
14732;SDS011;7457;50.960;6.830;2023-06-22T06:03:04;6.55;;;4.60;;
14732;SDS011;7457;50.960;6.830;2023-06-22T06:05:31;6.85;;;5.10;;
14732;SDS011;7457;50.960;6.830;2023-06-22T06:08:00;5.60;;;5.10;;
14732;SDS011;7457;50.960;6.830;2023-06-22T06:10:27;5.82;;;5.22;;
14732;SDS011;7457;50.960;6.830;2023-06-22T06:12:55;5.63;;;5.13;;
14732;SDS011;7457;50.960;6.830;2023-06-22T06:15:21;7.00;;;4.88;;
14732;SDS011;7457;50.960;6.830;2023-06-22T06:17:47;5.38;;;4.88;;
14732;SDS011;7457;50.960;6.830;2023-06-22T06:20:14;8.25;;;5.03;;
14732;SDS011;7457;50.960;6.830;2023-06-22T06:22:40;6.63;;;5.25;;
14732;SDS011;7457;50.960;6.830;2023-06-22T06:25:07;7.85;;;5.13;;
14732;SDS011;7457;50.960;6.830;2023-06-22T06:27:33;7.60;;;5.60;;
14732;SDS011;7457;50.960;6.830;2023-06-22T06:29:59;6.97;;;5.45;;
14732;SDS011;7457;50.960;6.830;2023-06-22T06:32:25;6.55;;;5.65;;
14732;SDS011;7457;50.960;6.830;2023-06-22T06:34:50;8.55;;;5.38;;
14732;SDS011;7457;50.960;6.830;2023-06-22T06:37:16;6.82;;;5.63;;
14732;SDS011;7457;50.960;6.830;2023-06-22T06:39:43;9.80;;;7.47;;
14732;SDS011;7457;50.960;6.830;2023-06-22T06:42:09;9.48;;;6.97;;
14732;SDS011;7457;50.960;6.830;2023-06-22T06:44:36;8.55;;;6.50;;
14732;SDS011;7457;50.960;6.830;2023-06-22T06:47:03;11.65;;;7.03;;
14732;SDS011;7457;50.960;6.830;2023-06-22T06:49:29;11.68;;;6.65;;
14732;SDS011;7457;50.960;6.830;2023-06-22T06:51:55;8.82;;;6.20;;
14732;SDS011;7457;50.960;6.830;2023-06-22T06:54:21;8.52;;;5.88;;
14732;SDS011;7457;50.960;6.830;2023-06-22T06:56:47;7.95;;;6.80;;
14732;SDS011;7457;50.960;6.830;2023-06-22T06:59:13;7.88;;;6.80;;
14732;SDS011;7457;50.960;6.830;2023-06-22T07:01:40;15.18;;;7.60;;
14732;SDS011;7457;50.960;6.830;2023-06-22T07:04:06;8.25;;;6.80;;
14732;SDS011;7457;50.960;6.830;2023-06-22T07:06:32;9.32;;;7.18;;
14732;SDS011;7457;50.960;6.830;2023-06-22T07:08:58;8.25;;;7.45;;
14732;SDS011;7457;50.960;6.830;2023-06-22T07:11:24;9.98;;;7.18;;
14732;SDS011;7457;50.960;6.830;2023-06-22T07:13:50;8.13;;;7.30;;
14732;SDS011;7457;50.960;6.830;2023-06-22T07:16:16;13.88;;;8.40;;
14732;SDS011;7457;50.960;6.830;2023-06-22T07:18:42;9.10;;;7.70;;
14732;SDS011;7457;50.960;6.830;2023-06-22T07:21:07;9.55;;;7.38;;
14732;SDS011;7457;50.960;6.830;2023-06-22T07:23:33;8.70;;;7.90;;
14732;SDS011;7457;50.960;6.830;2023-06-22T07:25:59;9.85;;;7.80;;
14732;SDS011;7457;50.960;6.830;2023-06-22T07:28:28;9.50;;;8.60;;
14732;SDS011;7457;50.960;6.830;2023-06-22T07:30:56;9.43;;;8.48;;
14732;SDS011;7457;50.960;6.830;2023-06-22T07:33:22;10.82;;;8.93;;
14732;SDS011;7457;50.960;6.830;2023-06-22T07:35:47;11.18;;;8.45;;
14732;SDS011;7457;50.960;6.830;2023-06-22T07:38:16;8.75;;;7.82;;
14732;SDS011;7457;50.960;6.830;2023-06-22T07:40:41;10.02;;;7.90;;
14732;SDS011;7457;50.960;6.830;2023-06-22T07:43:07;13.57;;;9.70;;
14732;SDS011;7457;50.960;6.830;2023-06-22T07:45:33;14.68;;;9.70;;
14732;SDS011;7457;50.960;6.830;2023-06-22T07:48:00;14.15;;;9.45;;
14732;SDS011;7457;50.960;6.830;2023-06-22T07:50:26;12.45;;;9.75;;
14732;SDS011;7457;50.960;6.830;2023-06-22T07:52:51;13.50;;;9.50;;
14732;SDS011;7457;50.960;6.830;2023-06-22T07:55:18;11.52;;;9.40;;
14732;SDS011;7457;50.960;6.830;2023-06-22T07:57:43;11.02;;;9.90;;
14732;SDS011;7457;50.960;6.830;2023-06-22T08:00:09;12.30;;;9.80;;
14732;SDS011;7457;50.960;6.830;2023-06-22T08:02:39;10.70;;;9.57;;
14732;SDS011;7457;50.960;6.830;2023-06-22T08:05:06;12.50;;;9.35;;
14732;SDS011;7457;50.960;6.830;2023-06-22T08:07:34;13.35;;;10.40;;
14732;SDS011;7457;50.960;6.830;2023-06-22T08:10:09;11.80;;;10.45;;
14732;SDS011;7457;50.960;6.830;2023-06-22T08:12:36;14.05;;;10.20;;
14732;SDS011;7457;50.960;6.830;2023-06-22T08:15:02;11.85;;;9.88;;
14732;SDS011;7457;50.960;6.830;2023-06-22T08:17:28;14.40;;;10.10;;
14732;SDS011;7457;50.960;6.830;2023-06-22T08:19:54;10.85;;;9.00;;
14732;SDS011;7457;50.960;6.830;2023-06-22T08:22:19;14.35;;;10.88;;
14732;SDS011;7457;50.960;6.830;2023-06-22T08:24:45;12.38;;;10.00;;
14732;SDS011;7457;50.960;6.830;2023-06-22T08:27:11;13.23;;;10.35;;
14732;SDS011;7457;50.960;6.830;2023-06-22T08:29:46;11.75;;;10.55;;
14732;SDS011;7457;50.960;6.830;2023-06-22T08:32:11;10.63;;;8.85;;
14732;SDS011;7457;50.960;6.830;2023-06-22T08:34:37;11.63;;;10.43;;
14732;SDS011;7457;50.960;6.830;2023-06-22T08:37:07;12.43;;;9.52;;
14732;SDS011;7457;50.960;6.830;2023-06-22T08:39:33;11.40;;;10.23;;
14732;SDS011;7457;50.960;6.830;2023-06-22T08:41:59;11.43;;;9.02;;
14732;SDS011;7457;50.960;6.830;2023-06-22T08:44:25;11.23;;;9.25;;
14732;SDS011;7457;50.960;6.830;2023-06-22T08:46:50;11.50;;;9.27;;
14732;SDS011;7457;50.960;6.830;2023-06-22T08:49:16;11.70;;;8.73;;
14732;SDS011;7457;50.960;6.830;2023-06-22T08:51:41;11.70;;;9.43;;
14732;SDS011;7457;50.960;6.830;2023-06-22T08:54:09;8.55;;;7.75;;
14732;SDS011;7457;50.960;6.830;2023-06-22T08:56:35;9.88;;;7.35;;
14732;SDS011;7457;50.960;6.830;2023-06-22T08:59:00;7.13;;;6.43;;
14732;SDS011;7457;50.960;6.830;2023-06-22T09:01:26;7.18;;;6.57;;
14732;SDS011;7457;50.960;6.830;2023-06-22T09:03:52;7.25;;;6.55;;
14732;SDS011;7457;50.960;6.830;2023-06-22T09:06:22;7.38;;;6.50;;
14732;SDS011;7457;50.960;6.830;2023-06-22T09:08:48;6.85;;;6.25;;
14732;SDS011;7457;50.960;6.830;2023-06-22T09:11:14;7.00;;;6.32;;
14732;SDS011;7457;50.960;6.830;2023-06-22T09:13:40;7.30;;;6.70;;
14732;SDS011;7457;50.960;6.830;2023-06-22T09:16:06;7.82;;;7.07;;
14732;SDS011;7457;50.960;6.830;2023-06-22T09:18:31;6.80;;;6.20;;
14732;SDS011;7457;50.960;6.830;2023-06-22T09:20:58;7.85;;;7.00;;
14732;SDS011;7457;50.960;6.830;2023-06-22T09:23:24;8.90;;;7.75;;
14732;SDS011;7457;50.960;6.830;2023-06-22T09:25:50;7.80;;;7.00;;
14732;SDS011;7457;50.960;6.830;2023-06-22T09:28:16;7.78;;;7.05;;
14732;SDS011;7457;50.960;6.830;2023-06-22T09:30:42;7.43;;;6.70;;
14732;SDS011;7457;50.960;6.830;2023-06-22T09:33:09;8.05;;;7.15;;
14732;SDS011;7457;50.960;6.830;2023-06-22T09:35:35;8.77;;;7.97;;
14732;SDS011;7457;50.960;6.830;2023-06-22T09:38:00;7.53;;;6.72;;
14732;SDS011;7457;50.960;6.830;2023-06-22T09:40:26;9.63;;;7.85;;
14732;SDS011;7457;50.960;6.830;2023-06-22T09:42:52;9.10;;;7.72;;
14732;SDS011;7457;50.960;6.830;2023-06-22T09:45:17;7.35;;;6.47;;
14732;SDS011;7457;50.960;6.830;2023-06-22T09:47:43;7.20;;;6.60;;
14732;SDS011;7457;50.960;6.830;2023-06-22T09:50:09;7.63;;;6.93;;
14732;SDS011;7457;50.960;6.830;2023-06-22T09:52:35;8.07;;;7.28;;
14732;SDS011;7457;50.960;6.830;2023-06-22T09:55:00;7.10;;;6.40;;
14732;SDS011;7457;50.960;6.830;2023-06-22T09:57:28;6.88;;;6.13;;
14732;SDS011;7457;50.960;6.830;2023-06-22T09:59:54;8.02;;;6.55;;
14732;SDS011;7457;50.960;6.830;2023-06-22T10:02:20;10.18;;;6.70;;
14732;SDS011;7457;50.960;6.830;2023-06-22T10:04:47;7.72;;;6.70;;
14732;SDS011;7457;50.960;6.830;2023-06-22T10:07:13;7.72;;;7.03;;
14732;SDS011;7457;50.960;6.830;2023-06-22T10:09:38;7.28;;;6.53;;
14732;SDS011;7457;50.960;6.830;2023-06-22T10:12:04;7.95;;;6.68;;
14732;SDS011;7457;50.960;6.830;2023-06-22T10:14:30;8.00;;;7.20;;
14732;SDS011;7457;50.960;6.830;2023-06-22T10:16:56;8.63;;;7.82;;
14732;SDS011;7457;50.960;6.830;2023-06-22T10:19:21;11.68;;;7.97;;
14732;SDS011;7457;50.960;6.830;2023-06-22T10:21:47;10.95;;;8.65;;
14732;SDS011;7457;50.960;6.830;2023-06-22T10:24:13;15.35;;;9.48;;
14732;SDS011;7457;50.960;6.830;2023-06-22T10:26:38;12.13;;;9.32;;
14732;SDS011;7457;50.960;6.830;2023-06-22T10:29:04;10.38;;;8.77;;
14732;SDS011;7457;50.960;6.830;2023-06-22T10:31:30;11.15;;;10.05;;
14732;SDS011;7457;50.960;6.830;2023-06-22T10:33:55;11.73;;;9.85;;
14732;SDS011;7457;50.960;6.830;2023-06-22T10:36:22;12.27;;;9.77;;
14732;SDS011;7457;50.960;6.830;2023-06-22T10:38:48;11.85;;;10.63;;
14732;SDS011;7457;50.960;6.830;2023-06-22T10:41:15;13.35;;;10.93;;
14732;SDS011;7457;50.960;6.830;2023-06-22T10:43:41;12.43;;;11.02;;
14732;SDS011;7457;50.960;6.830;2023-06-22T10:46:07;13.88;;;11.85;;
14732;SDS011;7457;50.960;6.830;2023-06-22T10:48:34;15.45;;;12.20;;
14732;SDS011;7457;50.960;6.830;2023-06-22T10:51:00;15.43;;;11.77;;
14732;SDS011;7457;50.960;6.830;2023-06-22T10:53:25;14.32;;;12.60;;
14732;SDS011;7457;50.960;6.830;2023-06-22T10:55:51;19.45;;;14.00;;
14732;SDS011;7457;50.960;6.830;2023-06-22T10:58:18;15.13;;;13.57;;
14732;SDS011;7457;50.960;6.830;2023-06-22T11:00:44;17.00;;;14.15;;
14732;SDS011;7457;50.960;6.830;2023-06-22T11:03:10;22.00;;;14.50;;
14732;SDS011;7457;50.960;6.830;2023-06-22T11:05:36;17.65;;;14.55;;
14732;SDS011;7457;50.960;6.830;2023-06-22T11:08:01;18.58;;;15.05;;
14732;SDS011;7457;50.960;6.830;2023-06-22T11:10:27;17.45;;;15.63;;
14732;SDS011;7457;50.960;6.830;2023-06-22T11:12:52;17.58;;;15.70;;
14732;SDS011;7457;50.960;6.830;2023-06-22T11:15:18;17.08;;;14.80;;
14732;SDS011;7457;50.960;6.830;2023-06-22T11:17:44;20.58;;;14.13;;
14732;SDS011;7457;50.960;6.830;2023-06-22T11:20:10;17.67;;;14.88;;
14732;SDS011;7457;50.960;6.830;2023-06-22T11:22:39;16.38;;;14.70;;
14732;SDS011;7457;50.960;6.830;2023-06-22T11:25:06;18.50;;;15.45;;
14732;SDS011;7457;50.960;6.830;2023-06-22T11:27:32;16.63;;;14.55;;
14732;SDS011;7457;50.960;6.830;2023-06-22T11:29:58;19.80;;;14.15;;
14732;SDS011;7457;50.960;6.830;2023-06-22T11:32:24;15.80;;;14.18;;
14732;SDS011;7457;50.960;6.830;2023-06-22T11:34:50;18.90;;;14.77;;
14732;SDS011;7457;50.960;6.830;2023-06-22T11:37:15;16.50;;;14.57;;
14732;SDS011;7457;50.960;6.830;2023-06-22T11:39:41;15.35;;;13.85;;
14732;SDS011;7457;50.960;6.830;2023-06-22T11:42:07;17.42;;;15.55;;
14732;SDS011;7457;50.960;6.830;2023-06-22T11:44:34;14.98;;;13.18;;
14732;SDS011;7457;50.960;6.830;2023-06-22T11:47:00;17.08;;;15.15;;
14732;SDS011;7457;50.960;6.830;2023-06-22T11:49:26;17.67;;;15.43;;
14732;SDS011;7457;50.960;6.830;2023-06-22T11:51:52;16.08;;;14.30;;
14732;SDS011;7457;50.960;6.830;2023-06-22T11:54:18;18.30;;;15.18;;
14732;SDS011;7457;50.960;6.830;2023-06-22T11:56:44;24.92;;;17.25;;
14732;SDS011;7457;50.960;6.830;2023-06-22T11:59:09;19.75;;;17.08;;
14732;SDS011;7457;50.960;6.830;2023-06-22T12:01:35;18.60;;;16.55;;
14732;SDS011;7457;50.960;6.830;2023-06-22T12:04:01;18.17;;;15.60;;
14732;SDS011;7457;50.960;6.830;2023-06-22T12:06:30;19.13;;;15.75;;
14732;SDS011;7457;50.960;6.830;2023-06-22T12:08:57;18.23;;;16.33;;
14732;SDS011;7457;50.960;6.830;2023-06-22T12:11:22;17.48;;;15.70;;
14732;SDS011;7457;50.960;6.830;2023-06-22T12:13:48;19.23;;;16.60;;
14732;SDS011;7457;50.960;6.830;2023-06-22T12:16:13;19.48;;;16.02;;
14732;SDS011;7457;50.960;6.830;2023-06-22T12:18:39;18.63;;;16.73;;
14732;SDS011;7457;50.960;6.830;2023-06-22T12:21:05;18.48;;;16.45;;
14732;SDS011;7457;50.960;6.830;2023-06-22T12:23:30;18.48;;;15.85;;
14732;SDS011;7457;50.960;6.830;2023-06-22T12:25:56;17.25;;;15.52;;
14732;SDS011;7457;50.960;6.830;2023-06-22T12:28:21;18.05;;;16.17;;
14732;SDS011;7457;50.960;6.830;2023-06-22T12:30:48;19.33;;;14.48;;
14732;SDS011;7457;50.960;6.830;2023-06-22T12:33:14;14.23;;;12.57;;
14732;SDS011;7457;50.960;6.830;2023-06-22T12:35:39;16.83;;;11.60;;
14732;SDS011;7457;50.960;6.830;2023-06-22T12:38:05;14.93;;;12.57;;
14732;SDS011;7457;50.960;6.830;2023-06-22T12:40:32;14.63;;;11.85;;
14732;SDS011;7457;50.960;6.830;2023-06-22T12:42:58;15.50;;;12.63;;
14732;SDS011;7457;50.960;6.830;2023-06-22T12:45:24;14.13;;;12.23;;
14732;SDS011;7457;50.960;6.830;2023-06-22T12:47:53;13.52;;;12.20;;
14732;SDS011;7457;50.960;6.830;2023-06-22T12:50:19;13.70;;;12.30;;
14732;SDS011;7457;50.960;6.830;2023-06-22T12:52:45;14.27;;;12.32;;
14732;SDS011;7457;50.960;6.830;2023-06-22T12:55:10;13.15;;;11.90;;
14732;SDS011;7457;50.960;6.830;2023-06-22T12:57:36;13.18;;;11.85;;
14732;SDS011;7457;50.960;6.830;2023-06-22T13:00:02;13.18;;;11.35;;
14732;SDS011;7457;50.960;6.830;2023-06-22T13:02:29;11.32;;;9.88;;
14732;SDS011;7457;50.960;6.830;2023-06-22T13:04:55;11.93;;;10.73;;
14732;SDS011;7457;50.960;6.830;2023-06-22T13:07:20;10.20;;;9.10;;
14732;SDS011;7457;50.960;6.830;2023-06-22T13:09:46;10.65;;;9.55;;
14732;SDS011;7457;50.960;6.830;2023-06-22T13:12:16;10.20;;;9.02;;
14732;SDS011;7457;50.960;6.830;2023-06-22T13:14:41;10.18;;;8.85;;
14732;SDS011;7457;50.960;6.830;2023-06-22T13:17:08;8.80;;;7.90;;
14732;SDS011;7457;50.960;6.830;2023-06-22T13:19:34;8.90;;;8.00;;
14732;SDS011;7457;50.960;6.830;2023-06-22T13:21:59;9.05;;;8.25;;
14732;SDS011;7457;50.960;6.830;2023-06-22T13:24:25;9.05;;;8.25;;
14732;SDS011;7457;50.960;6.830;2023-06-22T13:26:51;9.13;;;8.23;;
14732;SDS011;7457;50.960;6.830;2023-06-22T13:29:16;10.13;;;7.72;;
14732;SDS011;7457;50.960;6.830;2023-06-22T13:31:42;9.55;;;7.80;;
14732;SDS011;7457;50.960;6.830;2023-06-22T13:34:08;8.88;;;7.50;;
14732;SDS011;7457;50.960;6.830;2023-06-22T13:36:33;8.18;;;7.38;;
14732;SDS011;7457;50.960;6.830;2023-06-22T13:38:59;8.68;;;7.88;;
14732;SDS011;7457;50.960;6.830;2023-06-22T13:41:24;9.25;;;8.30;;
14732;SDS011;7457;50.960;6.830;2023-06-22T13:43:50;13.38;;;8.63;;
14732;SDS011;7457;50.960;6.830;2023-06-22T13:46:16;9.07;;;8.18;;
14732;SDS011;7457;50.960;6.830;2023-06-22T13:48:42;8.90;;;7.85;;
14732;SDS011;7457;50.960;6.830;2023-06-22T13:51:07;8.32;;;7.53;;
14732;SDS011;7457;50.960;6.830;2023-06-22T13:53:33;8.45;;;7.65;;
14732;SDS011;7457;50.960;6.830;2023-06-22T13:55:59;10.02;;;8.75;;
14732;SDS011;7457;50.960;6.830;2023-06-22T13:58:24;9.45;;;8.55;;
14732;SDS011;7457;50.960;6.830;2023-06-22T14:00:50;9.75;;;8.85;;
14732;SDS011;7457;50.960;6.830;2023-06-22T14:03:15;8.73;;;7.93;;
14732;SDS011;7457;50.960;6.830;2023-06-22T14:05:42;11.10;;;10.00;;
14732;SDS011;7457;50.960;6.830;2023-06-22T14:08:08;8.85;;;8.02;;
14732;SDS011;7457;50.960;6.830;2023-06-22T14:10:34;7.03;;;6.40;;
14732;SDS011;7457;50.960;6.830;2023-06-22T14:13:00;7.88;;;5.82;;
14732;SDS011;7457;50.960;6.830;2023-06-22T14:15:25;5.40;;;4.90;;
14732;SDS011;7457;50.960;6.830;2023-06-22T14:17:51;5.93;;;5.18;;
14732;SDS011;7457;50.960;6.830;2023-06-22T14:20:17;5.43;;;4.93;;
14732;SDS011;7457;50.960;6.830;2023-06-22T14:22:43;5.70;;;5.20;;
14732;SDS011;7457;50.960;6.830;2023-06-22T14:25:09;7.50;;;6.18;;
14732;SDS011;7457;50.960;6.830;2023-06-22T14:27:34;6.95;;;6.25;;
14732;SDS011;7457;50.960;6.830;2023-06-22T14:30:00;7.43;;;6.82;;
14732;SDS011;7457;50.960;6.830;2023-06-22T14:32:27;7.63;;;6.82;;
14732;SDS011;7457;50.960;6.830;2023-06-22T14:34:55;8.40;;;7.47;;
14732;SDS011;7457;50.960;6.830;2023-06-22T14:37:20;10.43;;;7.63;;
14732;SDS011;7457;50.960;6.830;2023-06-22T14:39:46;9.13;;;8.25;;
14732;SDS011;7457;50.960;6.830;2023-06-22T14:42:11;9.65;;;8.68;;
14732;SDS011;7457;50.960;6.830;2023-06-22T14:44:37;10.07;;;9.15;;
14732;SDS011;7457;50.960;6.830;2023-06-22T14:47:03;10.32;;;9.38;;
14732;SDS011;7457;50.960;6.830;2023-06-22T14:49:29;9.48;;;8.48;;
14732;SDS011;7457;50.960;6.830;2023-06-22T14:52:06;10.82;;;8.90;;
14732;SDS011;7457;50.960;6.830;2023-06-22T14:54:33;11.10;;;9.02;;